createdAt,value
2018-05-10T00:01:55.302Z,5.37
2018-05-10T00:04:22.809Z,7.43
2018-05-10T00:06:50.207Z,5.27
2018-05-10T00:09:17.623Z,5.27
2018-05-10T00:11:45.080Z,4.87
2018-05-10T00:14:12.491Z,8.30
2018-05-10T00:16:39.891Z,5.20
2018-05-10T00:19:07.341Z,5.40
2018-05-10T00:21:34.776Z,6.13
2018-05-10T00:24:02.185Z,5.20
2018-05-10T00:26:29.684Z,5.83
2018-05-10T00:28:57.081Z,5.37
2018-05-10T00:31:24.580Z,5.13
2018-05-10T00:33:51.960Z,5.27
2018-05-10T00:36:19.383Z,9.97
2018-05-10T00:38:46.778Z,6.40
2018-05-10T00:41:14.219Z,5.60
2018-05-10T00:43:41.636Z,5.63
2018-05-10T00:46:09.300Z,5.60
2018-05-10T00:48:36.693Z,5.37
2018-05-10T00:51:04.173Z,7.23
2018-05-10T00:53:31.561Z,5.60
2018-05-10T00:55:59.033Z,5.40
2018-05-10T00:58:26.445Z,4.57
2018-05-10T01:00:53.871Z,5.03
2018-05-10T01:03:21.312Z,5.50
2018-05-10T01:05:48.724Z,6.43
2018-05-10T01:08:16.190Z,5.53
2018-05-10T01:10:43.608Z,5.20
2018-05-10T01:13:11.040Z,5.60
2018-05-10T01:15:38.434Z,6.10
2018-05-10T01:18:05.940Z,6.10
2018-05-10T01:20:33.370Z,5.63
2018-05-10T01:23:00.774Z,7.03
2018-05-10T01:25:28.178Z,15.33
2018-05-10T01:27:55.665Z,10.30
2018-05-10T01:30:23.042Z,6.77
2018-05-10T01:32:50.584Z,7.07
2018-05-10T01:35:29.687Z,8.13
2018-05-10T01:37:57.097Z,13.87
2018-05-10T01:40:24.487Z,7.10
2018-05-10T01:42:51.924Z,8.53
2018-05-10T01:45:19.323Z,6.53
2018-05-10T01:47:46.742Z,6.97
2018-05-10T01:50:14.153Z,7.13
2018-05-10T01:52:41.564Z,10.70
2018-05-10T01:55:08.997Z,6.47
2018-05-10T01:57:36.537Z,6.60
2018-05-10T02:00:03.955Z,6.90
2018-05-10T02:02:31.336Z,6.47
2018-05-10T02:04:58.786Z,6.83
2018-05-10T02:07:26.188Z,7.33
2018-05-10T02:09:53.628Z,6.33
2018-05-10T02:12:21.022Z,8.53
2018-05-10T02:14:48.467Z,6.53
2018-05-10T02:17:15.843Z,10.33
2018-05-10T02:19:43.277Z,6.80
2018-05-10T02:22:10.681Z,6.60
2018-05-10T02:24:38.122Z,6.23
2018-05-10T02:27:05.544Z,7.73
2018-05-10T02:29:32.976Z,16.90
2018-05-10T02:32:00.398Z,8.60
2018-05-10T02:34:28.089Z,7.80
2018-05-10T02:36:55.505Z,6.13
2018-05-10T02:39:22.897Z,7.70
2018-05-10T02:41:50.542Z,6.73
2018-05-10T02:44:17.936Z,7.00
2018-05-10T02:46:45.359Z,7.07
2018-05-10T02:49:12.824Z,6.40
2018-05-10T02:51:40.276Z,7.00
2018-05-10T02:54:07.686Z,8.73
2018-05-10T02:56:35.088Z,7.60
2018-05-10T02:59:02.476Z,7.47
2018-05-10T03:01:29.874Z,8.13
2018-05-10T03:03:57.579Z,11.13
2018-05-10T03:06:25.052Z,11.63
2018-05-10T03:08:52.443Z,10.30
2018-05-10T03:11:19.870Z,14.90
2018-05-10T03:13:47.284Z,11.50
2018-05-10T03:16:14.687Z,9.50
2018-05-10T03:18:42.102Z,10.10
2018-05-10T03:21:09.498Z,9.83
2018-05-10T03:23:37.007Z,11.40
2018-05-10T03:26:04.404Z,11.00
2018-05-10T03:28:31.811Z,13.20
2018-05-10T03:30:59.263Z,12.50
2018-05-10T03:33:26.680Z,11.70
2018-05-10T03:35:54.112Z,11.03
2018-05-10T03:38:21.519Z,9.63
2018-05-10T03:40:48.944Z,11.77
2018-05-10T03:43:16.361Z,11.67
2018-05-10T03:45:43.904Z,11.20
2018-05-10T03:48:11.347Z,10.73
2018-05-10T03:50:38.830Z,10.93
2018-05-10T03:53:06.289Z,10.63
2018-05-10T03:55:33.901Z,10.93
2018-05-10T03:58:01.287Z,13.77
2018-05-10T04:00:28.776Z,11.03
2018-05-10T04:06:26.435Z,11.67
2018-05-10T04:09:05.546Z,12.40
2018-05-10T04:11:32.976Z,11.97
2018-05-10T04:14:00.376Z,12.07
2018-05-10T04:16:27.824Z,11.27
2018-05-10T04:18:55.238Z,13.47
2018-05-10T04:21:22.638Z,14.13
2018-05-10T04:23:50.059Z,11.93
2018-05-10T04:26:17.546Z,12.73
2018-05-10T04:28:44.966Z,11.97
2018-05-10T04:31:12.419Z,12.20
2018-05-10T04:33:39.993Z,18.47
2018-05-10T04:36:07.311Z,13.30
2018-05-10T04:38:34.736Z,13.13
2018-05-10T04:41:02.162Z,11.37
2018-05-10T04:43:29.684Z,14.53
2018-05-10T04:45:57.145Z,12.53
2018-05-10T04:48:24.575Z,11.53
2018-05-10T04:50:52.004Z,11.47
2018-05-10T04:53:19.422Z,13.60
2018-05-10T04:55:46.834Z,11.80
2018-05-10T04:58:14.349Z,11.73
2018-05-10T05:00:41.746Z,11.17
2018-05-10T05:03:09.207Z,18.33
2018-05-10T05:05:36.580Z,13.53
2018-05-10T05:08:04.186Z,11.93
2018-05-10T05:10:31.598Z,13.80
2018-05-10T05:12:59.013Z,13.00
2018-05-10T05:15:26.440Z,13.00
2018-05-10T05:17:53.856Z,12.90
2018-05-10T05:20:21.266Z,13.77
2018-05-10T05:22:48.670Z,19.70
2018-05-10T05:25:16.088Z,13.37
2018-05-10T05:27:43.510Z,14.67
2018-05-10T05:30:10.920Z,14.00
2018-05-10T05:32:38.393Z,13.63
2018-05-10T05:35:05.731Z,12.97
2018-05-10T05:37:33.403Z,13.10
2018-05-10T05:40:00.819Z,14.00
2018-05-10T05:42:28.624Z,13.20
2018-05-10T05:44:56.077Z,13.90
2018-05-10T05:47:23.487Z,13.93
2018-05-10T05:49:50.943Z,15.10
2018-05-10T05:52:18.378Z,14.37
2018-05-10T05:54:45.762Z,15.67
2018-05-10T05:57:13.186Z,16.17
2018-05-10T05:59:40.612Z,13.90
2018-05-10T06:02:08.301Z,15.03
2018-05-10T06:04:35.685Z,17.00
2018-05-10T06:07:03.123Z,16.47
2018-05-10T06:09:30.507Z,15.30
2018-05-10T06:11:58.119Z,14.70
2018-05-10T06:14:25.520Z,14.90
2018-05-10T06:16:52.936Z,14.90
2018-05-10T06:19:20.422Z,14.63
2018-05-10T06:21:47.904Z,14.33
2018-05-10T06:24:15.317Z,13.57
2018-05-10T06:26:42.974Z,16.10
2018-05-10T06:29:10.365Z,14.17
2018-05-10T06:31:37.815Z,15.20
2018-05-10T06:34:05.367Z,16.73
2018-05-10T06:36:32.658Z,33.27
2018-05-10T06:39:00.100Z,36.40
2018-05-10T06:41:27.565Z,37.40
2018-05-10T06:43:55.293Z,37.93
2018-05-10T06:46:22.664Z,37.83
2018-05-10T06:48:50.147Z,40.73
2018-05-10T06:51:17.595Z,48.37
2018-05-10T06:53:45.039Z,45.20
2018-05-10T06:56:12.443Z,44.23
2018-05-10T06:58:39.900Z,56.27
2018-05-10T07:01:07.355Z,51.57
2018-05-10T07:03:34.835Z,62.10
2018-05-10T07:06:02.264Z,50.70
2018-05-10T07:08:29.684Z,55.90
2018-05-10T07:10:57.235Z,65.53
2018-05-10T07:13:24.671Z,59.90
2018-05-10T07:15:52.088Z,62.40
2018-05-10T07:18:19.904Z,58.30
2018-05-10T07:20:47.336Z,55.77
2018-05-10T07:23:14.730Z,59.83
2018-05-10T07:25:42.481Z,56.77
2018-05-10T07:28:10.351Z,55.47
2018-05-10T07:30:37.769Z,47.90
2018-05-10T07:33:05.459Z,49.60
2018-05-10T07:35:32.892Z,54.37
2018-05-10T07:38:00.303Z,63.63
2018-05-10T07:40:27.933Z,60.70
2018-05-10T07:42:55.337Z,63.47
2018-05-10T07:45:22.752Z,55.60
2018-05-10T07:47:51.767Z,54.27
2018-05-10T07:50:19.342Z,50.40
2018-05-10T07:52:46.750Z,62.30
2018-05-10T07:55:14.218Z,52.03
2018-05-10T07:57:41.654Z,56.07
2018-05-10T08:00:09.439Z,52.77
2018-05-10T08:02:37.375Z,51.73
2018-05-10T08:05:05.196Z,59.97
2018-05-10T08:07:32.619Z,52.70
2018-05-10T08:10:00.133Z,59.23
2018-05-10T08:12:27.626Z,56.40
2018-05-10T08:14:55.069Z,59.10
2018-05-10T08:17:25.158Z,54.60
2018-05-10T08:19:53.423Z,53.43
2018-05-10T08:22:20.867Z,54.13
2018-05-10T08:24:48.304Z,51.87
2018-05-10T08:27:15.993Z,53.13
2018-05-10T08:29:49.355Z,52.47
2018-05-10T08:32:16.771Z,58.90
2018-05-10T08:34:44.201Z,56.63
2018-05-10T08:37:11.639Z,58.33
2018-05-10T08:39:39.219Z,62.20
2018-05-10T08:42:07.256Z,49.23
2018-05-10T08:44:54.505Z,49.90
2018-05-10T08:47:33.037Z,50.03
2018-05-10T08:52:40.505Z,57.00
2018-05-10T08:55:07.980Z,56.97
2018-05-10T08:57:35.388Z,50.43
2018-05-10T09:00:02.849Z,51.83
2018-05-10T09:02:30.230Z,50.13
2018-05-10T09:04:58.056Z,52.87
2018-05-10T09:07:25.537Z,51.13
2018-05-10T09:09:52.961Z,57.40
2018-05-10T09:12:20.352Z,49.77
2018-05-10T09:14:47.820Z,49.23
2018-05-10T09:17:15.376Z,44.87
2018-05-10T09:19:43.113Z,32.57
2018-05-10T09:22:10.524Z,29.67
2018-05-10T09:24:38.268Z,28.07
2018-05-10T09:27:05.807Z,26.43
2018-05-10T09:29:33.258Z,21.93
2018-05-10T09:32:00.818Z,21.70
2018-05-10T09:34:28.260Z,19.83
2018-05-10T09:36:55.692Z,20.20
2018-05-10T09:39:23.195Z,20.27
2018-05-10T09:41:50.623Z,18.50
2018-05-10T09:44:18.049Z,18.20
2018-05-10T09:46:45.469Z,16.90
2018-05-10T09:49:12.892Z,14.23
2018-05-10T09:51:40.325Z,13.03
2018-05-10T09:54:08.040Z,11.60
2018-05-10T09:56:35.477Z,11.20
2018-05-10T09:59:02.959Z,9.97
2018-05-10T10:01:30.382Z,11.80
2018-05-10T10:03:57.949Z,11.77
2018-05-10T10:06:25.399Z,11.07
2018-05-10T10:08:52.804Z,10.63
2018-05-10T10:11:20.237Z,9.10
2018-05-10T10:13:47.828Z,8.77
2018-05-10T10:16:15.259Z,9.87
2018-05-10T10:18:42.665Z,8.03
2018-05-10T10:21:10.089Z,9.00
2018-05-10T10:23:37.460Z,8.67
2018-05-10T10:26:04.929Z,8.30
2018-05-10T10:28:32.418Z,7.90
2018-05-10T10:30:59.968Z,7.37
2018-05-10T10:33:27.506Z,7.83
2018-05-10T10:35:54.990Z,6.80
2018-05-10T10:38:22.419Z,6.37
2018-05-10T10:40:49.819Z,8.27
2018-05-10T10:43:17.279Z,7.53
2018-05-10T10:45:44.723Z,8.57
2018-05-10T10:48:12.316Z,9.73
2018-05-10T10:50:39.752Z,8.83
2018-05-10T10:53:07.159Z,8.40
2018-05-10T10:55:34.618Z,8.53
2018-05-10T10:58:02.068Z,10.50
2018-05-10T11:00:29.709Z,12.73
2018-05-10T11:02:57.151Z,10.83
2018-05-10T11:05:24.690Z,11.33
2018-05-10T11:07:52.375Z,10.90
2018-05-10T11:10:19.813Z,9.93
2018-05-10T11:12:47.235Z,17.53
2018-05-10T11:15:14.750Z,24.33
2018-05-10T11:17:42.276Z,23.03
2018-05-10T11:20:09.676Z,24.77
2018-05-10T11:22:37.160Z,23.53
2018-05-10T11:25:04.683Z,25.87
2018-05-10T11:27:34.226Z,22.47
2018-05-10T11:30:01.765Z,25.33
2018-05-10T11:32:29.218Z,23.93
2018-05-10T11:34:56.787Z,24.17
2018-05-10T11:37:24.360Z,23.50
2018-05-10T11:39:51.781Z,23.70
2018-05-10T11:42:19.228Z,24.50
2018-05-10T11:44:46.817Z,22.07
2018-05-10T11:47:15.068Z,23.90
2018-05-10T11:49:42.500Z,24.20
2018-05-10T11:52:09.930Z,26.90
2018-05-10T11:54:37.381Z,24.90
2018-05-10T11:57:04.857Z,25.53
2018-05-10T11:59:32.567Z,24.27
2018-05-10T12:02:00.474Z,23.70
2018-05-10T12:04:27.918Z,22.53
2018-05-10T12:06:55.355Z,23.43
2018-05-10T12:09:22.865Z,25.10
2018-05-10T12:11:50.287Z,23.23
2018-05-10T12:14:17.726Z,21.70
2018-05-10T12:16:45.509Z,22.40
2018-05-10T12:19:12.998Z,20.60
2018-05-10T12:21:40.337Z,22.83
2018-05-10T12:24:07.782Z,21.93
2018-05-10T12:26:35.186Z,20.97
2018-05-10T12:29:02.625Z,21.90
2018-05-10T12:31:30.031Z,21.60
2018-05-10T12:33:57.499Z,20.00
2018-05-10T12:36:24.913Z,20.67
2018-05-10T12:38:52.348Z,19.70
2018-05-10T12:41:19.782Z,20.80
2018-05-10T12:43:47.226Z,19.80
2018-05-10T12:46:24.256Z,17.17
2018-05-10T12:48:51.683Z,16.53
2018-05-10T12:51:19.133Z,18.80
2018-05-10T12:53:46.566Z,15.63
2018-05-10T12:56:14.078Z,19.07
2018-05-10T12:58:41.413Z,29.30
2018-05-10T13:01:08.865Z,21.67
2018-05-10T13:03:36.247Z,23.23
2018-05-10T13:06:03.689Z,24.50
2018-05-10T13:08:31.093Z,25.13
2018-05-10T13:10:58.789Z,26.60
2018-05-10T13:13:26.364Z,29.40
2018-05-10T13:15:53.849Z,30.63
2018-05-10T13:18:21.160Z,31.13
2018-05-10T13:20:48.599Z,32.40
2018-05-10T13:23:16.129Z,32.63
2018-05-10T13:25:43.860Z,32.30
2018-05-10T13:28:11.417Z,37.80
2018-05-10T13:30:38.882Z,36.70
2018-05-10T13:33:06.334Z,31.57
2018-05-10T13:35:33.792Z,32.27
2018-05-10T13:38:01.192Z,31.10
2018-05-10T13:40:28.630Z,40.00
2018-05-10T13:42:56.154Z,39.70
2018-05-10T13:45:23.590Z,36.47
2018-05-10T13:47:51.017Z,34.10
2018-05-10T13:50:18.451Z,45.70
2018-05-10T13:52:45.855Z,36.03
2018-05-10T13:55:13.255Z,33.03
2018-05-10T13:57:40.706Z,31.57
2018-05-10T14:00:08.252Z,34.53
2018-05-10T14:02:35.714Z,33.63
2018-05-10T14:05:03.272Z,24.43
2018-05-10T14:07:30.722Z,20.47
2018-05-10T14:09:58.510Z,25.33
2018-05-10T14:12:25.980Z,17.70
2018-05-10T14:14:53.391Z,19.33
2018-05-10T14:17:20.802Z,23.10
2018-05-10T14:19:48.206Z,15.43
2018-05-10T14:22:15.633Z,15.03
2018-05-10T14:24:43.273Z,13.63
2018-05-10T14:27:10.697Z,12.50
2018-05-10T14:29:38.130Z,10.60
2018-05-10T14:32:05.540Z,9.00
2018-05-10T14:34:32.971Z,8.33
2018-05-10T14:37:00.387Z,7.70
2018-05-10T14:39:27.858Z,6.00
2018-05-10T14:41:55.254Z,5.57
2018-05-10T14:44:22.693Z,5.20
2018-05-10T14:46:50.085Z,6.53
2018-05-10T14:49:17.510Z,6.10
2018-05-10T14:51:44.924Z,4.17
2018-05-10T14:54:12.526Z,4.20
2018-05-10T14:56:39.915Z,6.50
2018-05-10T14:59:07.560Z,4.80
2018-05-10T15:01:35.119Z,4.40
2018-05-10T15:04:02.579Z,4.63
2018-05-10T15:06:30.040Z,6.47
2018-05-10T15:08:57.457Z,10.93
2018-05-10T15:11:24.917Z,7.83
2018-05-10T15:13:52.424Z,5.00
2018-05-10T15:16:19.835Z,4.30
2018-05-10T15:18:47.268Z,6.90
2018-05-10T15:21:14.676Z,5.10
2018-05-10T15:23:42.258Z,10.37
2018-05-10T15:26:09.670Z,4.93
2018-05-10T15:28:37.114Z,9.93
2018-05-10T15:31:04.541Z,6.10
2018-05-10T15:33:31.935Z,6.73
2018-05-10T15:35:59.376Z,10.60
2018-05-10T15:38:26.772Z,7.27
2018-05-10T15:40:54.319Z,6.53
2018-05-10T15:43:21.787Z,8.93
2018-05-10T15:45:49.254Z,9.03
2018-05-10T15:48:16.662Z,6.40
2018-05-10T15:50:44.067Z,6.00
2018-05-10T15:53:11.521Z,6.63
2018-05-10T15:55:39.008Z,7.03
2018-05-10T15:58:06.418Z,7.73
2018-05-10T16:00:33.804Z,8.03
2018-05-10T16:03:01.374Z,9.60
2018-05-10T16:05:28.760Z,11.10
2018-05-10T16:07:56.191Z,13.97
2018-05-10T16:10:23.603Z,6.83
2018-05-10T16:12:51.062Z,15.30
2018-05-10T16:15:18.559Z,11.47
2018-05-10T16:17:45.974Z,10.23
2018-05-10T16:20:13.366Z,8.37
2018-05-10T16:22:40.795Z,13.07
2018-05-10T16:25:08.208Z,14.63
2018-05-10T16:27:35.684Z,12.60
2018-05-10T16:30:03.397Z,10.10
2018-05-10T16:32:30.970Z,10.37
2018-05-10T16:34:58.430Z,14.40
2018-05-10T16:37:25.919Z,11.53
2018-05-10T16:39:53.437Z,13.57
2018-05-10T16:42:21.173Z,17.20
2018-05-10T16:44:48.620Z,17.10
2018-05-10T16:47:16.066Z,14.73
2018-05-10T16:49:43.517Z,14.93
2018-05-10T16:52:10.959Z,21.20
2018-05-10T16:54:38.390Z,29.07
2018-05-10T16:57:05.832Z,26.23
2018-05-10T16:59:33.245Z,18.00
2018-05-10T17:02:00.840Z,18.43
2018-05-10T17:04:28.292Z,19.50
2018-05-10T17:06:55.718Z,24.27
2018-05-10T17:09:23.235Z,26.07
2018-05-10T17:11:50.652Z,24.77
2018-05-10T17:14:18.161Z,24.90
2018-05-10T17:16:45.574Z,26.20
2018-05-10T17:19:13.000Z,24.17
2018-05-10T17:21:40.428Z,26.27
2018-05-10T17:24:07.890Z,23.83
2018-05-10T17:26:35.311Z,28.63
2018-05-10T17:29:02.752Z,24.40
2018-05-10T17:31:30.233Z,35.10
2018-05-10T17:33:57.639Z,24.90
2018-05-10T17:36:25.268Z,24.93
2018-05-10T17:38:52.674Z,23.43
2018-05-10T17:41:20.100Z,30.67
2018-05-10T17:43:47.505Z,28.60
2018-05-10T17:46:14.955Z,24.80
2018-05-10T17:48:42.418Z,20.10
2018-05-10T17:51:09.945Z,43.47
2018-05-10T17:53:37.379Z,25.53
2018-05-10T17:56:04.812Z,23.13
2018-05-10T17:58:32.242Z,25.23
2018-05-10T18:00:59.670Z,20.07
2018-05-10T18:03:27.253Z,23.20
2018-05-10T18:05:54.979Z,20.70
2018-05-10T18:08:22.411Z,21.83
2018-05-10T18:10:49.847Z,26.10
2018-05-10T18:13:17.271Z,21.90
2018-05-10T18:15:44.876Z,22.77
2018-05-10T18:18:12.365Z,20.43
2018-05-10T18:20:39.794Z,22.30
2018-05-10T18:23:07.250Z,18.60
2018-05-10T18:25:34.691Z,18.77
2018-05-10T18:28:02.145Z,19.33
2018-05-10T18:30:29.543Z,21.63
2018-05-10T18:32:57.367Z,23.00
2018-05-10T18:35:24.846Z,18.97
2018-05-10T18:37:52.359Z,23.90
2018-05-10T18:40:19.774Z,20.17
2018-05-10T18:42:47.220Z,28.77
2018-05-10T18:45:14.670Z,18.63
2018-05-10T18:47:42.068Z,25.00
2018-05-10T18:50:09.643Z,23.03
2018-05-10T18:52:37.178Z,27.77
2018-05-10T18:55:04.646Z,20.77
2018-05-10T18:57:32.073Z,21.47
2018-05-10T18:59:59.498Z,32.07
2018-05-10T19:02:26.921Z,31.90
2018-05-10T19:04:54.473Z,23.47
2018-05-10T19:07:22.101Z,22.30
2018-05-10T19:09:49.501Z,27.43
2018-05-10T19:12:16.953Z,23.53
2018-05-10T19:14:44.373Z,25.10
2018-05-10T19:17:11.798Z,20.90
2018-05-10T19:19:39.232Z,22.87
2018-05-10T19:22:06.721Z,22.23
2018-05-10T19:24:34.360Z,21.53
2018-05-10T19:27:01.777Z,27.70
2018-05-10T19:29:29.224Z,24.63
2018-05-10T19:31:58.886Z,25.27
2018-05-10T19:34:26.362Z,20.50
2018-05-10T19:36:53.796Z,27.83
2018-05-10T19:39:21.265Z,24.97
2018-05-10T19:41:49.081Z,27.97
2018-05-10T19:44:16.543Z,30.87
2018-05-10T19:46:43.971Z,29.87
2018-05-10T19:49:11.393Z,34.70
2018-05-10T19:51:38.882Z,31.20
2018-05-10T19:54:06.349Z,23.00
2018-05-10T19:56:33.910Z,18.10
2018-05-10T19:59:01.273Z,22.90
2018-05-10T20:01:34.017Z,22.03
2018-05-10T20:04:01.473Z,24.23
2018-05-10T20:06:28.900Z,25.37
2018-05-10T20:08:56.350Z,19.40
2018-05-10T20:11:23.799Z,19.87
2018-05-10T20:13:51.404Z,27.20
2018-05-10T20:16:18.997Z,21.47
2018-05-10T20:18:46.690Z,18.33
2018-05-10T20:21:14.503Z,20.07
2018-05-10T20:23:41.911Z,26.10
2018-05-10T20:26:09.400Z,22.93
2018-05-10T20:28:37.381Z,28.37
2018-05-10T20:31:07.889Z,24.30
2018-05-10T20:33:35.361Z,20.37
2018-05-10T20:36:02.865Z,19.57
2018-05-10T20:38:30.353Z,19.23
2018-05-10T20:40:57.899Z,24.17
2018-05-10T20:43:25.382Z,19.50
2018-05-10T20:45:52.831Z,17.73
2018-05-10T20:48:20.275Z,25.60
2018-05-10T20:50:47.967Z,22.70
2018-05-10T20:53:15.488Z,23.70
2018-05-10T20:55:42.921Z,18.13
2018-05-10T20:58:10.365Z,17.23
2018-05-10T21:00:37.787Z,23.70
2018-05-10T21:03:05.241Z,19.67
2018-05-10T21:05:32.653Z,19.37
2018-05-10T21:08:00.080Z,15.27
2018-05-10T21:10:27.494Z,17.13
2018-05-10T21:12:55.019Z,20.73
2018-05-10T21:15:22.468Z,26.73
2018-05-10T21:17:49.880Z,15.17
2018-05-10T21:20:17.313Z,17.70
2018-05-10T21:22:44.781Z,18.87
2018-05-10T21:25:12.216Z,17.47
2018-05-10T21:27:39.684Z,13.50
2018-05-10T21:30:07.076Z,13.23
2018-05-10T21:32:34.664Z,14.03
2018-05-10T21:35:02.095Z,15.63
2018-05-10T21:37:29.558Z,18.30
2018-05-10T21:39:57.056Z,14.93
2018-05-10T21:42:24.501Z,15.67
2018-05-10T21:44:52.144Z,18.57
2018-05-10T21:47:19.412Z,18.40
2018-05-10T21:49:58.519Z,14.40
2018-05-10T21:52:25.972Z,15.30
2018-05-10T21:54:53.439Z,13.20
2018-05-10T21:57:20.971Z,14.83
2018-05-10T21:59:48.465Z,15.97
2018-05-10T22:02:23.608Z,17.57
2018-05-10T22:04:51.168Z,19.10
2018-05-10T22:07:18.596Z,14.50
2018-05-10T22:09:46.020Z,13.57
2018-05-10T22:12:13.628Z,15.13
2018-05-10T22:14:41.150Z,14.63
2018-05-10T22:17:11.828Z,16.37
2018-05-10T22:19:44.827Z,19.10
2018-05-10T22:22:26.716Z,15.10
2018-05-10T22:25:12.445Z,21.40
2018-05-10T22:28:01.371Z,20.67
2018-05-10T22:30:45.278Z,15.57
2018-05-10T22:33:21.925Z,18.07
2018-05-10T22:36:01.602Z,14.63
2018-05-10T22:38:41.709Z,25.43
2018-05-10T22:41:22.897Z,18.90
2018-05-10T22:43:58.503Z,14.53
2018-05-10T22:46:32.885Z,15.07
2018-05-10T22:49:26.839Z,16.30
2018-05-10T22:52:24.937Z,14.70
2018-05-10T22:55:05.974Z,13.80
2018-05-10T22:57:33.431Z,16.23
2018-05-10T23:00:00.827Z,16.60
2018-05-10T23:02:28.247Z,17.33
2018-05-10T23:04:55.648Z,20.97
2018-05-10T23:07:23.259Z,15.47
2018-05-10T23:09:50.740Z,19.27
2018-05-10T23:12:18.163Z,22.07
2018-05-10T23:14:45.635Z,13.67
2018-05-10T23:17:13.040Z,26.47
2018-05-10T23:19:40.471Z,17.40
2018-05-10T23:22:07.880Z,16.50
2018-05-10T23:24:35.299Z,14.23
2018-05-10T23:27:02.808Z,21.60
2018-05-10T23:29:30.232Z,13.93
2018-05-10T23:31:57.620Z,15.50
2018-05-10T23:34:25.026Z,15.57
2018-05-10T23:36:52.440Z,15.63
2018-05-10T23:39:19.861Z,20.40
2018-05-10T23:41:47.252Z,15.30
2018-05-10T23:44:14.689Z,19.67
2018-05-10T23:46:42.156Z,20.10
2018-05-10T23:49:09.759Z,25.90
2018-05-10T23:51:37.335Z,22.47
2018-05-10T23:54:04.771Z,19.90
2018-05-10T23:56:32.187Z,17.17
2018-05-10T23:58:59.633Z,18.83
